Time;durP1;ratioP1;P1;durP2;ratioP2;P2;SDS_P1;SDS_P2;PMS_P1;PMS_P2;Temp;Humidity;BMP_temperature;BMP_pressure;BME280_temperature;BME280_humidity;BME280_pressure;Samples;Min_cycle;Max_cycle;Signal;HPM_P1;HPM_P2
2023/03/23 00:01:20;;;;;;;;;;;;;;;12.56;62.07;100168.28;4182291;28;20032;-62
2023/03/23 00:03:22;;;;;;;;;;;;;;;12.53;62.15;100166.78;4170393;28;21256;-61
2023/03/23 00:05:24;;;;;;;;;;;;;;;12.51;62.27;100165.34;4170755;28;20028;-61
2023/03/23 00:07:27;;;;;;;;;;;;;;;12.48;62.03;100163.88;4175578;28;20481;-61
2023/03/23 00:09:29;;;;;;;;;;;;;;;12.47;62.09;100162.19;4170482;28;19964;-63
2023/03/23 00:11:33;;;;;;;;;;;;;;;12.44;62.15;100152.63;4170140;28;20454;-63
2023/03/23 00:13:36;;;;;;;;;;;;;;;12.42;62.12;100145.72;4165162;28;20028;-63
2023/03/23 00:15:41;;;;;;;;;;;;;;;12.41;61.96;100150.31;4169711;28;20007;-64
2023/03/23 00:17:43;;;;;;;;;;;;;;;12.42;62.42;100141.13;4169974;28;20012;-63
2023/03/23 00:19:48;;;;;;;;;;;;;;;12.41;62.34;100135.91;4170064;28;20599;-63
2023/03/23 00:21:53;;;;;;;;;;;;;;;12.39;62.07;100133.41;4183312;28;20477;-63
2023/03/23 00:23:56;;;;;;;;;;;;;;;12.37;62.05;100126.56;4170552;28;20015;-60
2023/03/23 00:25:58;;;;;;;;;;;;;;;12.36;62.46;100123.00;4169437;28;20761;-63
2023/03/23 00:28:02;;;;;;;;;;;;;;;12.35;62.36;100139.44;4169144;28;20015;-63
2023/03/23 00:30:05;;;;;;;;;;;;;;;12.35;62.31;100134.03;4185093;28;20447;-63
2023/03/23 00:32:12;;;;;;;;;;;;;;;12.33;62.26;100125.28;4175848;28;20032;-63
2023/03/23 00:34:18;;;;;;;;;;;;;;;12.32;62.31;100123.59;4168083;28;20044;-63
2023/03/23 00:36:23;;;;;;;;;;;;;;;12.30;62.44;100123.81;4168312;28;20412;-61
2023/03/23 00:38:25;;;;;;;;;;;;;;;12.25;62.45;100121.72;4170313;28;19929;-62
2023/03/23 00:40:30;;;;;;;;;;;;;;;12.23;62.26;100125.69;4169973;28;20023;-61
2023/03/23 00:42:36;;;;;;;;;;;;;;;12.23;62.27;100121.09;4170155;28;19925;-63
2023/03/23 00:44:39;;;;;;;;;;;;;;;12.21;62.57;100117.75;4169809;28;20386;-63
2023/03/23 00:46:44;;;;;;;;;;;;;;;12.22;62.46;100122.09;4167210;28;20057;-63
2023/03/23 00:48:46;;;;;;;;;;;;;;;12.20;62.46;100116.06;4171744;28;20047;-63
2023/03/23 00:50:48;;;;;;;;;;;;;;;12.19;62.54;100108.97;4167112;28;19972;-63
2023/03/23 00:52:52;;;;;;;;;;;;;;;12.18;62.24;100118.16;4187213;28;20490;-62
2023/03/23 00:54:54;;;;;;;;;;;;;;;12.17;62.14;100108.34;4171784;28;20450;-64
2023/03/23 00:56:56;;;;;;;;;;;;;;;12.15;62.38;100101.50;4173112;28;20024;-64
2023/03/23 00:58:58;;;;;;;;;;;;;;;12.12;62.62;100101.91;4167401;28;20015;-63
2023/03/23 01:01:01;;;;;;;;;;;;;;;12.08;62.72;100102.31;4168775;28;20032;-64
2023/03/23 01:03:04;;;;;;;;;;;;;;;12.05;62.66;100096.44;4172379;28;19959;-60
2023/03/23 01:05:06;;;;;;;;;;;;;;;12.03;62.80;100096.66;4173400;28;20024;-63
2023/03/23 01:07:12;;;;;;;;;;;;;;;12.02;62.99;100096.84;4172372;28;20011;-63
2023/03/23 01:09:16;;;;;;;;;;;;;;;12.00;62.61;100094.34;4172933;28;20437;-63
2023/03/23 01:11:18;;;;;;;;;;;;;;;11.98;62.74;100090.19;4173183;28;20430;-63
2023/03/23 01:13:22;;;;;;;;;;;;;;;11.98;62.99;100082.06;4186182;28;19951;-62
2023/03/23 01:15:24;;;;;;;;;;;;;;;11.95;62.82;100091.41;4172577;28;20017;-63
2023/03/23 01:17:27;;;;;;;;;;;;;;;11.93;63.22;100081.81;4170801;28;20024;-63
2023/03/23 01:19:29;;;;;;;;;;;;;;;11.90;63.36;100083.03;4172114;28;20016;-61
2023/03/23 01:21:32;;;;;;;;;;;;;;;11.87;63.13;100075.31;4171974;28;20055;-61
2023/03/23 01:23:34;;;;;;;;;;;;;;;11.83;63.34;100077.63;4187701;28;20413;-63
2023/03/23 01:25:36;;;;;;;;;;;;;;;11.80;63.27;100078.00;4171868;28;20024;-62
2023/03/23 01:27:39;;;;;;;;;;;;;;;11.81;63.67;100068.84;4171884;28;20024;-61
2023/03/23 01:29:41;;;;;;;;;;;;;;;11.79;63.66;100076.34;4166082;28;19933;-61
2023/03/23 01:31:43;;;;;;;;;;;;;;;11.79;63.57;100070.91;4182057;28;20024;-63
2023/03/23 01:33:47;;;;;;;;;;;;;;;11.79;63.30;100072.81;4187085;28;20466;-62
2023/03/23 01:35:49;;;;;;;;;;;;;;;11.77;63.67;100075.72;4185737;28;20019;-60
2023/03/23 01:37:51;;;;;;;;;;;;;;;11.76;63.28;100065.91;4170067;28;20008;-63
2023/03/23 01:39:54;;;;;;;;;;;;;;;11.74;63.51;100068.00;4171707;28;20028;-63
2023/03/23 01:41:57;;;;;;;;;;;;;;;11.71;63.50;100065.69;4182869;28;20007;-63
2023/03/23 01:44:01;;;;;;;;;;;;;;;11.70;63.91;100056.72;4186458;28;19936;-62
2023/03/23 01:46:05;;;;;;;;;;;;;;;11.67;63.60;100067.13;4178643;28;20015;-64
2023/03/23 01:48:08;;;;;;;;;;;;;;;11.65;64.02;100061.09;4171152;28;20020;-63
2023/03/23 01:50:11;;;;;;;;;;;;;;;11.65;63.88;100066.50;4170293;28;20011;-63
2023/03/23 01:52:17;;;;;;;;;;;;;;;11.64;63.68;100062.94;4169964;28;20012;-63
2023/03/23 01:54:21;;;;;;;;;;;;;;;11.62;63.95;100062.31;4170191;28;20036;-63
2023/03/23 01:56:25;;;;;;;;;;;;;;;11.62;63.86;100064.19;4170962;28;20040;-63
2023/03/23 01:58:29;;;;;;;;;;;;;;;11.59;63.96;100062.72;4186751;28;20032;-63
2023/03/23 02:00:32;;;;;;;;;;;;;;;11.59;64.23;100059.19;4181101;28;20396;-63
2023/03/23 02:02:35;;;;;;;;;;;;;;;11.58;64.26;100049.38;4186623;28;20015;-62
2023/03/23 02:04:38;;;;;;;;;;;;;;;11.56;63.94;100049.59;4186544;28;19925;-63
2023/03/23 02:06:41;;;;;;;;;;;;;;;11.54;64.32;100041.66;4170904;28;20027;-63
2023/03/23 02:08:56;;;;;;;;;;;;;;;11.53;64.02;100053.50;4187350;28;20032;-62
2023/03/23 02:10:58;;;;;;;;;;;;;;;11.55;64.07;100053.31;4169632;28;20016;-64
2023/03/23 02:13:01;;;;;;;;;;;;;;;11.54;63.94;100046.25;4170153;28;20019;-62
2023/03/23 02:15:04;;;;;;;;;;;;;;;11.51;63.99;100055.59;4170771;28;20036;-63
2023/03/23 02:17:08;;;;;;;;;;;;;;;11.50;64.31;100044.97;4185921;28;20493;-63
2023/03/23 02:19:20;;;;;;;;;;;;;;;11.47;64.38;100035.41;4184989;28;20004;-63
2023/03/23 02:21:28;;;;;;;;;;;;;;;11.45;64.20;100039.34;4171450;28;20012;-63
2023/03/23 02:23:38;;;;;;;;;;;;;;;11.43;64.38;100041.41;4186309;28;20023;-62
2023/03/23 02:25:48;;;;;;;;;;;;;;;11.41;64.42;100038.91;4183856;28;20012;-63
2023/03/23 02:28:05;;;;;;;;;;;;;;;11.41;64.55;100041.63;4185234;28;19960;-63
2023/03/23 02:30:12;;;;;;;;;;;;;;;11.42;64.76;100040.56;4183194;28;20020;-62
2023/03/23 02:32:18;;;;;;;;;;;;;;;11.38;64.35;100038.47;4184795;28;20359;-61
2023/03/23 02:34:21;;;;;;;;;;;;;;;11.35;64.89;100035.13;4171670;28;20350;-61
2023/03/23 02:36:25;;;;;;;;;;;;;;;11.34;64.92;100033.44;4186111;28;20031;-60
2023/03/23 02:38:29;;;;;;;;;;;;;;;11.33;64.70;100031.81;4186393;28;20024;-62
2023/03/23 02:40:31;;;;;;;;;;;;;;;11.33;64.64;100028.25;4171155;28;19952;-63
2023/03/23 02:42:33;;;;;;;;;;;;;;;11.35;64.84;100029.72;4169399;28;20019;-63
2023/03/23 02:44:36;;;;;;;;;;;;;;;11.39;64.75;100032.03;4185789;28;20888;-62
2023/03/23 02:46:38;;;;;;;;;;;;;;;11.40;64.97;100039.94;4185571;28;20023;-61
2023/03/23 02:48:40;;;;;;;;;;;;;;;11.42;64.59;100040.56;4164725;28;20439;-61
2023/03/23 02:50:44;;;;;;;;;;;;;;;11.45;64.60;100042.88;4170826;28;20019;-63
2023/03/23 02:52:46;;;;;;;;;;;;;;;11.45;64.64;100040.16;4184727;28;20011;-63
2023/03/23 02:54:49;;;;;;;;;;;;;;;11.45;64.88;100034.75;4185758;28;20497;-58
2023/03/23 02:56:51;;;;;;;;;;;;;;;11.45;64.98;100028.53;4170311;28;20455;-61
2023/03/23 02:58:59;;;;;;;;;;;;;;;11.47;64.93;100037.25;4185884;28;20027;-63
2023/03/23 03:01:13;;;;;;;;;;;;;;;11.50;64.72;100034.16;4185689;28;20011;-60
2023/03/23 03:03:16;;;;;;;;;;;;;;;11.54;64.75;100032.72;4166841;28;20354;-63
2023/03/23 03:05:26;;;;;;;;;;;;;;;11.57;65.05;100032.34;4185538;28;20024;-63
2023/03/23 03:07:35;;;;;;;;;;;;;;;11.61;64.69;100030.06;4169363;28;20008;-63
2023/03/23 03:09:39;;;;;;;;;;;;;;;11.64;64.56;100022.38;4169588;28;20023;-62
2023/03/23 03:11:41;;;;;;;;;;;;;;;11.67;64.67;100021.13;4169197;28;20482;-64
2023/03/23 03:13:47;;;;;;;;;;;;;;;11.69;64.49;100022.63;4186264;28;20019;-61
2023/03/23 03:15:50;;;;;;;;;;;;;;;11.72;64.60;100022.22;4186619;28;19959;-63
2023/03/23 03:17:54;;;;;;;;;;;;;;;11.79;64.39;100021.41;4168849;28;19925;-64
2023/03/23 03:19:58;;;;;;;;;;;;;;;11.81;63.77;100017.44;4185945;28;20489;-61
2023/03/23 03:22:02;;;;;;;;;;;;;;;11.84;63.57;100016.22;4184294;28;20045;-62
2023/03/23 03:24:17;;;;;;;;;;;;;;;11.86;63.73;100020.34;4183527;28;20023;-62
2023/03/23 03:26:26;;;;;;;;;;;;;;;11.90;63.67;100015.41;4170024;28;19924;-63
2023/03/23 03:28:33;;;;;;;;;;;;;;;11.93;63.44;100016.88;4186541;28;20011;-63
2023/03/23 03:30:35;;;;;;;;;;;;;;;11.95;63.40;100010.22;4168890;28;20016;-63
2023/03/23 03:32:38;;;;;;;;;;;;;;;11.97;63.57;100027.09;4170588;28;20003;-63
2023/03/23 03:34:41;;;;;;;;;;;;;;;11.98;63.31;100014.41;4169056;28;20024;-62
2023/03/23 03:36:45;;;;;;;;;;;;;;;11.99;63.14;100011.50;4169035;28;20813;-62
2023/03/23 03:38:48;;;;;;;;;;;;;;;12.01;63.42;100003.19;4170680;28;20023;-63
2023/03/23 03:40:52;;;;;;;;;;;;;;;12.03;62.95;100011.91;4184923;28;20091;-63
2023/03/23 03:42:54;;;;;;;;;;;;;;;12.04;62.91;100013.59;4176421;28;20012;-64
2023/03/23 03:44:56;;;;;;;;;;;;;;;12.05;62.85;100007.97;4169850;28;20012;-62
2023/03/23 03:46:58;;;;;;;;;;;;;;;12.07;62.60;100008.59;4185547;28;20394;-62
2023/03/23 03:49:01;;;;;;;;;;;;;;;12.10;62.76;100003.81;4169594;28;20020;-63
2023/03/23 03:51:03;;;;;;;;;;;;;;;12.13;62.64;100000.69;4182149;28;20092;-64
2023/03/23 03:53:08;;;;;;;;;;;;;;;12.14;62.38;99997.78;4184783;28;20450;-63
2023/03/23 03:55:10;;;;;;;;;;;;;;;12.16;62.56;99994.88;4184944;28;20023;-63
2023/03/23 03:57:18;;;;;;;;;;;;;;;12.15;62.40;99988.63;4184588;28;20023;-63
2023/03/23 03:59:35;;;;;;;;;;;;;;;12.16;62.38;99995.72;4171279;28;20024;-62
2023/03/23 04:02:00;;;;;;;;;;;;;;;12.18;62.65;100003.63;4163353;28;19932;-61
2023/03/23 04:04:02;;;;;;;;;;;;;;;12.19;62.66;99998.00;4184711;28;20462;-63
2023/03/23 04:06:09;;;;;;;;;;;;;;;12.19;62.70;99998.00;4169210;28;20025;-61
2023/03/23 04:08:11;;;;;;;;;;;;;;;12.18;62.78;99999.03;4176072;28;20092;-62
2023/03/23 04:10:13;;;;;;;;;;;;;;;12.18;62.94;100004.47;4170409;28;19929;-63
2023/03/23 04:12:20;;;;;;;;;;;;;;;12.21;62.90;100003.19;4184231;28;20458;-63
2023/03/23 04:14:31;;;;;;;;;;;;;;;12.21;63.33;99997.78;4171724;28;20028;-63
2023/03/23 04:16:34;;;;;;;;;;;;;;;12.20;63.26;99999.66;4183764;28;20035;-64
2023/03/23 04:18:36;;;;;;;;;;;;;;;12.19;63.69;100000.69;4169560;28;20032;-62
2023/03/23 04:20:39;;;;;;;;;;;;;;;12.19;63.70;99989.03;4185064;28;20027;-64
2023/03/23 04:22:43;;;;;;;;;;;;;;;12.19;63.93;99987.16;4168822;28;20015;-63
2023/03/23 04:24:45;;;;;;;;;;;;;;;12.19;64.21;99991.75;4189507;28;20027;-62
2023/03/23 04:26:54;;;;;;;;;;;;;;;12.16;64.44;99992.16;4187744;28;20032;-63
2023/03/23 04:29:03;;;;;;;;;;;;;;;12.14;64.79;99986.94;4188033;28;20023;-63
2023/03/23 04:31:14;;;;;;;;;;;;;;;12.15;64.55;99993.22;4187982;28;20369;-63
2023/03/23 04:33:22;;;;;;;;;;;;;;;12.15;64.61;99983.22;4186814;28;20536;-63
2023/03/23 04:35:25;;;;;;;;;;;;;;;12.15;64.64;99971.56;4172340;28;20013;-63
2023/03/23 04:37:40;;;;;;;;;;;;;;;12.13;65.49;99977.19;4172420;28;20015;-63
2023/03/23 04:39:45;;;;;;;;;;;;;;;12.12;65.19;99986.34;4173075;28;20024;-63
2023/03/23 04:41:47;;;;;;;;;;;;;;;12.11;65.65;99986.53;4188241;28;20018;-63
2023/03/23 04:44:17;;;;;;;;;;;;;;;12.09;65.86;99981.31;4180888;28;20442;-64
2023/03/23 04:46:22;;;;;;;;;;;;;;;12.08;66.50;99979.66;4171112;28;20030;-63
2023/03/23 04:48:27;;;;;;;;;;;;;;;12.05;66.34;99993.59;4187713;28;20012;-64
2023/03/23 04:50:38;;;;;;;;;;;;;;;12.02;66.64;99991.28;4187874;28;20481;-64
2023/03/23 04:52:51;;;;;;;;;;;;;;;12.00;66.53;99998.78;4188155;28;20497;-64
2023/03/23 04:54:55;;;;;;;;;;;;;;;11.98;66.90;100001.69;4172432;28;20017;-62
2023/03/23 04:56:59;;;;;;;;;;;;;;;11.99;67.09;100008.78;4171385;28;20025;-63
2023/03/23 04:59:01;;;;;;;;;;;;;;;11.99;67.01;100003.38;4167998;28;20450;-61
2023/03/23 05:01:13;;;;;;;;;;;;;;;12.00;66.97;100002.31;4170603;28;20071;-63
2023/03/23 05:03:21;;;;;;;;;;;;;;;11.99;67.33;100014.22;4169669;28;21397;-62
2023/03/23 05:05:27;;;;;;;;;;;;;;;12.01;67.22;100005.88;4171459;28;20040;-63
2023/03/23 05:07:30;;;;;;;;;;;;;;;12.02;66.90;100007.53;4187681;28;20028;-61
2023/03/23 05:09:32;;;;;;;;;;;;;;;12.02;67.22;100002.97;4187392;28;20015;-63
2023/03/23 05:11:34;;;;;;;;;;;;;;;12.01;66.95;100011.31;4186405;28;20015;-63
2023/03/23 05:13:36;;;;;;;;;;;;;;;12.01;67.17;100009.41;4185666;28;20453;-63
2023/03/23 05:15:39;;;;;;;;;;;;;;;12.03;67.15;100001.09;4188488;28;20019;-63
2023/03/23 05:17:45;;;;;;;;;;;;;;;12.03;67.48;100014.63;4172327;28;20056;-64
2023/03/23 05:19:50;;;;;;;;;;;;;;;12.02;67.31;100007.53;4186721;28;20011;-63
2023/03/23 05:22:15;;;;;;;;;;;;;;;12.02;67.03;100018.34;4172056;28;20012;-63
2023/03/23 05:24:24;;;;;;;;;;;;;;;12.02;66.58;100018.34;4172013;28;20019;-63
2023/03/23 05:26:28;;;;;;;;;;;;;;;12.02;66.63;100021.06;4188524;28;20019;-62
2023/03/23 05:28:36;;;;;;;;;;;;;;;12.05;66.70;100007.13;4172651;28;20044;-61
2023/03/23 05:30:55;;;;;;;;;;;;;;;12.05;66.29;100018.81;4178857;28;20015;-60
2023/03/23 05:32:59;;;;;;;;;;;;;;;12.07;66.58;100022.13;4170707;28;20003;-63
2023/03/23 05:35:20;;;;;;;;;;;;;;;12.07;66.75;100024.00;4171964;28;19929;-63
2023/03/23 05:37:26;;;;;;;;;;;;;;;12.06;66.51;100023.16;4180611;28;20011;-63
2023/03/23 05:39:34;;;;;;;;;;;;;;;12.07;66.67;100024.00;4185103;28;20012;-63
2023/03/23 05:42:06;;;;;;;;;;;;;;;12.06;67.45;100030.47;4183570;28;20031;-63
2023/03/23 05:44:26;;;;;;;;;;;;;;;12.03;67.97;100026.28;4171041;28;20474;-63
2023/03/23 05:46:32;;;;;;;;;;;;;;;12.00;68.06;100026.69;4170048;28;20439;-63
2023/03/23 05:48:38;;;;;;;;;;;;;;;11.99;68.72;100033.16;4170223;28;20015;-60
2023/03/23 05:50:41;;;;;;;;;;;;;;;11.99;68.89;100032.28;4185726;28;20058;-63
2023/03/23 05:52:43;;;;;;;;;;;;;;;11.97;69.48;100037.91;4168737;28;20027;-61
2023/03/23 05:54:48;;;;;;;;;;;;;;;11.96;69.66;100035.41;4184793;28;20031;-62
2023/03/23 05:56:52;;;;;;;;;;;;;;;11.94;69.91;100043.72;4185075;28;19925;-62
2023/03/23 05:58:59;;;;;;;;;;;;;;;11.91;70.89;100049.50;4185423;28;20875;-63
2023/03/23 06:01:02;;;;;;;;;;;;;;;11.88;70.94;100050.78;4184616;28;20019;-63
2023/03/23 06:03:06;;;;;;;;;;;;;;;11.88;71.45;100055.34;4184500;28;20015;-63
2023/03/23 06:05:22;;;;;;;;;;;;;;;11.85;71.91;100047.66;4170240;28;20016;-63
2023/03/23 06:07:29;;;;;;;;;;;;;;;11.84;72.14;100045.97;4185063;28;20039;-64
2023/03/23 06:09:36;;;;;;;;;;;;;;;11.84;72.29;100057.63;4170182;28;20027;-63
2023/03/23 06:11:40;;;;;;;;;;;;;;;11.88;72.00;100058.03;4170186;28;20019;-61
2023/03/23 06:14:18;;;;;;;;;;;;;;;11.89;72.73;100051.59;4202045;28;20027;-63
2023/03/23 06:16:20;;;;;;;;;;;;;;;11.90;72.97;100061.41;4183487;28;20019;-64
2023/03/23 06:18:33;;;;;;;;;;;;;;;11.93;73.67;100060.16;4186235;28;19929;-64
2023/03/23 06:20:51;;;;;;;;;;;;;;;11.94;74.13;100067.25;4171925;28;20016;-64
2023/03/23 06:23:05;;;;;;;;;;;;;;;11.94;74.88;100067.25;4170085;28;20550;-63
2023/03/23 06:25:11;;;;;;;;;;;;;;;11.91;75.51;100063.03;4183385;28;20019;-64
2023/03/23 06:27:17;;;;;;;;;;;;;;;11.90;75.86;100059.50;4176986;28;20019;-63
2023/03/23 06:29:20;;;;;;;;;;;;;;;11.87;76.36;100069.91;4177536;28;20453;-64
2023/03/23 06:31:28;;;;;;;;;;;;;;;11.83;76.67;100066.78;4184216;28;20027;-64
2023/03/23 06:33:30;;;;;;;;;;;;;;;11.83;77.29;100066.78;4169805;28;20107;-63
2023/03/23 06:36:06;;;;;;;;;;;;;;;11.73;77.69;100063.59;4173787;28;20024;-64
2023/03/23 06:38:19;;;;;;;;;;;;;;;11.77;78.12;100070.31;4186771;28;20352;-62
2023/03/23 06:40:29;;;;;;;;;;;;;;;11.73;78.86;100071.72;4172935;28;19951;-64
2023/03/23 06:42:32;;;;;;;;;;;;;;;11.70;79.24;100081.06;4171810;28;20025;-64
2023/03/23 06:44:56;;;;;;;;;;;;;;;11.69;79.57;100074.00;4173238;28;20027;-63
2023/03/23 06:46:58;;;;;;;;;;;;;;;11.69;79.58;100078.56;4186135;28;20027;-65
2023/03/23 06:49:03;;;;;;;;;;;;;;;11.69;79.91;100081.25;4173439;28;19975;-64
2023/03/23 06:51:15;;;;;;;;;;;;;;;11.67;79.73;100077.94;4169753;28;20054;-65
2023/03/23 06:53:22;;;;;;;;;;;;;;;11.64;80.46;100089.97;4200175;28;20016;-65
2023/03/23 06:55:26;;;;;;;;;;;;;;;11.62;81.13;100094.75;4170229;28;20391;-65
2023/03/23 06:57:29;;;;;;;;;;;;;;;11.61;81.46;100092.25;4186725;28;19996;-65
2023/03/23 06:59:32;;;;;;;;;;;;;;;11.60;81.75;100083.31;4144245;28;20044;-65
2023/03/23 07:01:35;;;;;;;;;;;;;;;11.59;81.85;100089.75;4167702;28;19978;-64
2023/03/23 07:03:39;;;;;;;;;;;;;;;11.57;82.07;100099.94;4167823;28;20698;-64
2023/03/23 07:05:41;;;;;;;;;;;;;;;11.54;82.17;100094.94;4184981;28;20012;-64
2023/03/23 07:07:47;;;;;;;;;;;;;;;11.51;82.75;100088.03;4168544;28;20023;-64
2023/03/23 07:10:02;;;;;;;;;;;;;;;11.52;82.43;100086.19;4168095;28;20107;-64
2023/03/23 07:12:05;;;;;;;;;;;;;;;11.52;82.36;100092.44;4168069;28;20074;-65
2023/03/23 07:14:14;;;;;;;;;;;;;;;11.49;82.57;100079.31;4171289;28;20067;-65
2023/03/23 07:16:17;;;;;;;;;;;;;;;11.55;82.10;100104.69;4170486;28;20037;-65
2023/03/23 07:18:19;;;;;;;;;;;;;;;11.58;81.98;100093.47;4169292;28;20011;-65
2023/03/23 07:20:24;;;;;;;;;;;;;;;11.59;81.86;100099.75;4170740;28;20023;-65
2023/03/23 07:22:26;;;;;;;;;;;;;;;11.59;81.53;100089.75;4168692;28;19936;-65
2023/03/23 07:24:37;;;;;;;;;;;;;;;11.58;81.49;100095.38;4171612;28;20425;-65
2023/03/23 07:26:50;;;;;;;;;;;;;;;11.58;82.17;100103.47;4176885;28;20011;-65
2023/03/23 07:28:53;;;;;;;;;;;;;;;11.56;82.29;100092.84;4177483;28;20586;-65
2023/03/23 07:31:03;;;;;;;;;;;;;;;11.57;82.48;100081.00;4184984;28;20051;-65
2023/03/23 07:33:07;;;;;;;;;;;;;;;11.56;82.73;100076.63;4183832;28;20038;-64
2023/03/23 07:35:09;;;;;;;;;;;;;;;11.57;82.59;100080.16;4185292;28;20066;-64
2023/03/23 07:37:28;;;;;;;;;;;;;;;11.57;82.95;100069.34;4169144;28;20040;-65
2023/03/23 07:39:30;;;;;;;;;;;;;;;11.54;83.23;100090.34;4168943;28;20004;-65
2023/03/23 07:41:36;;;;;;;;;;;;;;;11.54;83.24;100082.25;4175426;28;20024;-64
2023/03/23 07:43:50;;;;;;;;;;;;;;;11.56;83.67;100100.16;4185365;28;20537;-64
2023/03/23 07:45:58;;;;;;;;;;;;;;;11.54;83.82;100100.34;4187317;28;20047;-64
2023/03/23 07:48:06;;;;;;;;;;;;;;;11.56;84.34;100100.16;4168470;28;20503;-64
2023/03/23 07:50:08;;;;;;;;;;;;;;;11.58;84.58;100106.19;4170849;28;20027;-65
2023/03/23 07:52:14;;;;;;;;;;;;;;;11.56;84.37;100100.16;4174679;28;20027;-62
2023/03/23 07:54:17;;;;;;;;;;;;;;;11.52;85.02;100089.72;4166900;28;20012;-64
2023/03/23 07:56:29;;;;;;;;;;;;;;;11.53;85.43;100079.72;4183327;28;19928;-63
2023/03/23 07:58:44;;;;;;;;;;;;;;;11.53;85.68;100080.56;4188894;28;20043;-63
2023/03/23 08:00:48;;;;;;;;;;;;;;;11.53;85.63;100064.34;4172376;28;20023;-64
2023/03/23 08:02:53;;;;;;;;;;;;;;;11.54;85.67;100051.66;4170560;28;20028;-65
2023/03/23 08:05:14;;;;;;;;;;;;;;;11.50;86.05;100037.72;4174603;28;20032;-64
2023/03/23 08:07:40;;;;;;;;;;;;;;;11.49;86.29;100025.22;4172907;28;19996;-64
2023/03/23 08:09:51;;;;;;;;;;;;;;;11.46;86.53;100025.63;4188150;28;20023;-64
2023/03/23 08:12:19;;;;;;;;;;;;;;;11.48;86.68;100028.94;4179076;28;20024;-64
2023/03/23 08:14:41;;;;;;;;;;;;;;;11.49;86.83;100040.63;4174348;28;20012;-64
2023/03/23 08:17:02;;;;;;;;;;;;;;;11.49;87.00;100041.44;4173519;28;20482;-65
2023/03/23 08:19:22;;;;;;;;;;;;;;;11.52;86.77;100059.16;4173375;28;20031;-64
2023/03/23 08:21:43;;;;;;;;;;;;;;;11.54;86.58;100078.72;4187445;28;20023;-63
2023/03/23 08:24:04;;;;;;;;;;;;;;;11.58;86.60;100087.25;4173218;28;19967;-64
2023/03/23 08:26:22;;;;;;;;;;;;;;;11.62;86.05;100089.34;4172619;28;20441;-64
2023/03/23 08:28:32;;;;;;;;;;;;;;;11.67;86.09;100102.28;4186445;28;20019;-64
2023/03/23 08:30:54;;;;;;;;;;;;;;;11.67;85.79;100080.66;4173323;28;20028;-65
2023/03/23 08:33:05;;;;;;;;;;;;;;;11.67;85.51;100089.59;4188770;28;20378;-64
2023/03/23 08:35:36;;;;;;;;;;;;;;;11.68;85.57;100075.03;4186053;28;20023;-64
2023/03/23 08:37:54;;;;;;;;;;;;;;;11.70;85.30;100081.06;4173323;28;20008;-64
2023/03/23 08:40:19;;;;;;;;;;;;;;;11.75;85.38;100088.59;4187809;28;20032;-64
2023/03/23 08:42:56;;;;;;;;;;;;;;;11.78;85.11;100095.47;4177946;28;20023;-64
2023/03/23 08:45:18;;;;;;;;;;;;;;;11.81;85.19;100097.78;4172407;28;20020;-63
2023/03/23 08:47:42;;;;;;;;;;;;;;;11.82;84.81;100099.47;4186557;28;20027;-64
2023/03/23 08:50:02;;;;;;;;;;;;;;;11.82;85.01;100097.56;4172899;28;20008;-64
2023/03/23 08:52:10;;;;;;;;;;;;;;;11.84;84.98;100102.78;4172047;28;19982;-64
2023/03/23 08:54:46;;;;;;;;;;;;;;;11.87;84.57;100096.97;4188128;28;19936;-64
2023/03/23 08:57:05;;;;;;;;;;;;;;;11.85;84.57;100075.53;4187502;28;20019;-65
2023/03/23 08:59:31;;;;;;;;;;;;;;;11.85;84.39;100058.47;4187709;28;20494;-64
2023/03/23 09:01:41;;;;;;;;;;;;;;;11.85;84.60;100083.66;4172375;28;20036;-64
2023/03/23 09:04:08;;;;;;;;;;;;;;;11.85;84.43;100080.13;4171208;28;20598;-64
2023/03/23 09:06:20;;;;;;;;;;;;;;;11.86;84.32;100082.59;4172446;28;19934;-64
2023/03/23 09:08:21;;;;;;;;;;;;;;;11.88;84.27;100085.94;4167835;28;20011;-63
2023/03/23 09:10:24;;;;;;;;;;;;;;;11.90;83.97;100091.16;4173253;28;20007;-63
2023/03/23 09:12:26;;;;;;;;;;;;;;;11.95;83.98;100093.28;4172633;28;20016;-64
2023/03/23 09:14:28;;;;;;;;;;;;;;;12.00;84.41;100091.63;4172720;28;20527;-64
2023/03/23 09:16:31;;;;;;;;;;;;;;;12.04;83.73;100097.50;4187166;28;20039;-63
2023/03/23 09:18:33;;;;;;;;;;;;;;;12.08;83.87;100102.31;4173002;28;20020;-64
2023/03/23 09:20:38;;;;;;;;;;;;;;;12.12;83.49;100102.72;4173639;28;20017;-63
2023/03/23 09:22:40;;;;;;;;;;;;;;;12.14;83.59;100105.22;4187818;28;20023;-63
2023/03/23 09:24:42;;;;;;;;;;;;;;;12.16;83.33;100109.41;4174956;28;20032;-64
2023/03/23 09:26:45;;;;;;;;;;;;;;;12.21;83.19;100097.94;4173336;28;19981;-64
2023/03/23 09:28:47;;;;;;;;;;;;;;;12.24;83.19;100092.13;4171751;28;20023;-64
2023/03/23 09:30:49;;;;;;;;;;;;;;;12.28;82.92;100087.97;4172156;28;20008;-64
2023/03/23 09:32:51;;;;;;;;;;;;;;;12.28;82.65;100087.97;4171784;28;20016;-63
2023/03/23 09:34:54;;;;;;;;;;;;;;;12.30;82.87;100080.47;4173731;28;20020;-64
2023/03/23 09:36:59;;;;;;;;;;;;;;;12.31;82.90;100095.69;4170855;28;20020;-64
2023/03/23 09:39:01;;;;;;;;;;;;;;;12.32;82.73;100083.84;4172758;28;20024;-64
2023/03/23 09:41:06;;;;;;;;;;;;;;;12.34;82.00;100094.47;4173233;28;20020;-63
2023/03/23 09:43:14;;;;;;;;;;;;;;;12.36;81.89;100090.50;4172026;28;20020;-61
2023/03/23 09:45:17;;;;;;;;;;;;;;;12.37;81.71;100089.47;4173574;28;20024;-63
2023/03/23 09:47:21;;;;;;;;;;;;;;;12.42;81.68;100107.81;4173477;28;19955;-62
2023/03/23 09:49:24;;;;;;;;;;;;;;;12.44;81.29;100087.63;4172476;28;20020;-65
2023/03/23 09:51:37;;;;;;;;;;;;;;;12.50;80.94;100107.63;4171562;28;20019;-64
2023/03/23 09:53:41;;;;;;;;;;;;;;;12.52;80.73;100100.09;4168542;28;20024;-64
2023/03/23 09:55:45;;;;;;;;;;;;;;;12.56;80.78;100120.34;4170490;28;20015;-62
2023/03/23 09:57:48;;;;;;;;;;;;;;;12.62;80.36;100105.16;4171818;28;20024;-63
2023/03/23 09:59:52;;;;;;;;;;;;;;;12.68;79.95;100103.47;4171374;28;20020;-64
2023/03/23 10:01:55;;;;;;;;;;;;;;;12.73;79.44;100106.41;4170944;28;20005;-64
2023/03/23 10:04:00;;;;;;;;;;;;;;;12.77;79.00;100103.09;4173373;28;20013;-64
2023/03/23 10:06:02;;;;;;;;;;;;;;;12.81;78.97;100100.78;4168540;28;19949;-64
2023/03/23 10:08:09;;;;;;;;;;;;;;;12.85;78.24;100122.88;4186146;28;20434;-64
2023/03/23 10:10:14;;;;;;;;;;;;;;;12.87;77.94;100118.94;4172504;28;20032;-64
2023/03/23 10:12:22;;;;;;;;;;;;;;;12.89;77.71;100124.16;4168785;28;20036;-67
2023/03/23 10:14:27;;;;;;;;;;;;;;;12.91;77.84;100105.78;4171658;28;20438;-64
2023/03/23 10:16:30;;;;;;;;;;;;;;;12.92;76.96;100100.16;4171221;28;20031;-65
2023/03/23 10:18:37;;;;;;;;;;;;;;;12.94;76.77;100119.75;4172070;28;20431;-65
2023/03/23 10:20:43;;;;;;;;;;;;;;;12.95;76.79;100116.00;4171764;28;20016;-65
2023/03/23 10:22:46;;;;;;;;;;;;;;;12.97;76.52;100103.06;4172978;28;20024;-64
2023/03/23 10:24:50;;;;;;;;;;;;;;;12.98;76.52;100093.09;4170663;28;20010;-64
2023/03/23 10:26:57;;;;;;;;;;;;;;;13.00;76.09;100093.69;4171649;28;20024;-64
2023/03/23 10:29:01;;;;;;;;;;;;;;;13.01;75.63;100087.25;4177636;28;20382;-65
2023/03/23 10:31:03;;;;;;;;;;;;;;;13.02;75.66;100091.59;4173162;28;20011;-64
2023/03/23 10:33:06;;;;;;;;;;;;;;;13.04;75.23;100088.69;4170617;28;20016;-64
2023/03/23 10:35:11;;;;;;;;;;;;;;;13.05;75.57;100077.63;4171357;28;20438;-64
2023/03/23 10:37:13;;;;;;;;;;;;;;;13.07;75.47;100093.69;4170920;28;20378;-63
2023/03/23 10:39:17;;;;;;;;;;;;;;;13.10;75.58;100071.59;4172128;28;20039;-63
2023/03/23 10:41:19;;;;;;;;;;;;;;;13.11;74.89;100084.94;4171348;28;20009;-64
2023/03/23 10:43:23;;;;;;;;;;;;;;;13.15;74.65;100072.63;4171955;28;20016;-64
2023/03/23 10:45:26;;;;;;;;;;;;;;;13.16;74.41;100087.00;4177639;28;19956;-64
2023/03/23 10:47:28;;;;;;;;;;;;;;;13.20;74.23;100099.13;4171321;28;20012;-64
2023/03/23 10:49:32;;;;;;;;;;;;;;;13.19;74.39;100088.47;4168020;28;20482;-65
2023/03/23 10:51:36;;;;;;;;;;;;;;;13.19;74.05;100074.94;4172532;28;20024;-63
2023/03/23 10:53:39;;;;;;;;;;;;;;;13.21;74.07;100076.38;4172541;28;20015;-65